Time;durP1;ratioP1;P1;durP2;ratioP2;P2;SDS_P1;SDS_P2;PMS_P1;PMS_P2;Temp;Humidity;BMP_temperature;BMP_pressure;BME280_temperature;BME280_humidity;BME280_pressure;Samples;Min_cycle;Max_cycle;Signal;HPM_P1;HPM_P2
2022/03/14 00:02:15;;;;;;;18.30;10.70;;;;;;;;;;5098766;28;20039;-76
2022/03/14 00:04:41;;;;;;;18.58;11.82;;;;;;;;;;5102652;28;20032;-76
2022/03/14 00:07:07;;;;;;;22.63;12.30;;;;;;;;;;5107367;28;20032;-76
2022/03/14 00:09:33;;;;;;;21.15;11.40;;;;;;;;;;5109879;28;20436;-76
2022/03/14 00:11:59;;;;;;;18.60;12.32;;;;;;;;;;5110626;28;20107;-76
2022/03/14 00:14:25;;;;;;;19.27;11.95;;;;;;;;;;5089767;28;20040;-76
2022/03/14 00:16:56;;;;;;;17.17;12.02;;;;;;;;;;5100402;28;20032;-76
2022/03/14 00:19:23;;;;;;;23.13;13.13;;;;;;;;;;5105383;28;20028;-76
2022/03/14 00:21:49;;;;;;;18.17;11.52;;;;;;;;;;5091394;28;20032;-76
2022/03/14 00:24:15;;;;;;;17.98;11.45;;;;;;;;;;5102195;28;20062;-76
2022/03/14 00:26:41;;;;;;;18.33;12.77;;;;;;;;;;5100261;28;20032;-76
2022/03/14 00:29:08;;;;;;;15.52;11.20;;;;;;;;;;5100341;28;20053;-76
2022/03/14 00:31:34;;;;;;;20.20;11.43;;;;;;;;;;5100166;28;20070;-76
2022/03/14 00:34:00;;;;;;;18.40;11.25;;;;;;;;;;5104547;28;20138;-75
2022/03/14 00:36:27;;;;;;;19.90;11.85;;;;;;;;;;5104910;28;20032;-76
2022/03/14 00:38:53;;;;;;;16.80;11.43;;;;;;;;;;5108979;28;20062;-76
2022/03/14 00:41:19;;;;;;;16.13;11.25;;;;;;;;;;5111572;28;20032;-76
2022/03/14 00:43:46;;;;;;;19.23;11.98;;;;;;;;;;5103302;28;20039;-76
2022/03/14 00:46:14;;;;;;;20.00;11.30;;;;;;;;;;5105208;28;20031;-76
2022/03/14 00:48:40;;;;;;;17.58;11.60;;;;;;;;;;5097956;28;20028;-76
2022/03/14 00:51:06;;;;;;;17.75;12.07;;;;;;;;;;5098927;28;20024;-76
2022/03/14 00:53:32;;;;;;;14.27;10.65;;;;;;;;;;5094217;28;20460;-76
2022/03/14 00:55:58;;;;;;;15.68;11.63;;;;;;;;;;5102471;28;20107;-76
2022/03/14 00:58:26;;;;;;;16.77;11.23;;;;;;;;;;5093988;28;20035;-76
2022/03/14 01:00:52;;;;;;;16.52;11.52;;;;;;;;;;5107935;28;20557;-76
2022/03/14 01:03:18;;;;;;;18.23;11.43;;;;;;;;;;5093500;28;20047;-76
2022/03/14 01:05:44;;;;;;;17.83;12.23;;;;;;;;;;5093843;28;20073;-76
2022/03/14 01:08:11;;;;;;;15.98;11.55;;;;;;;;;;5109591;27;20043;-76
2022/03/14 01:10:37;;;;;;;15.05;10.60;;;;;;;;;;5105062;28;20039;-76
2022/03/14 01:13:04;;;;;;;18.98;11.35;;;;;;;;;;5111144;28;20027;-75
2022/03/14 01:15:32;;;;;;;15.25;11.52;;;;;;;;;;5103723;28;20085;-75
2022/03/14 01:17:58;;;;;;;16.67;11.40;;;;;;;;;;5107864;28;20036;-76
2022/03/14 01:20:25;;;;;;;15.45;11.27;;;;;;;;;;5096819;28;20031;-76
2022/03/14 01:22:54;;;;;;;15.45;11.27;;;;;;;;;;5093757;28;20360;-75
2022/03/14 01:25:20;;;;;;;18.35;11.52;;;;;;;;;;5101597;28;20072;-75
2022/03/14 01:27:46;;;;;;;15.93;11.20;;;;;;;;;;5112544;28;20077;-75
2022/03/14 01:30:15;;;;;;;15.10;11.07;;;;;;;;;;5105326;28;20024;-75
2022/03/14 01:32:41;;;;;;;18.02;11.18;;;;;;;;;;5111952;28;20046;-75
2022/03/14 01:35:07;;;;;;;16.27;10.68;;;;;;;;;;5106931;28;20056;-75
2022/03/14 01:37:33;;;;;;;14.55;11.20;;;;;;;;;;5093700;28;20054;-75
2022/03/14 01:39:59;;;;;;;17.33;11.07;;;;;;;;;;5102348;28;20028;-76
2022/03/14 01:42:26;;;;;;;15.15;10.52;;;;;;;;;;5097199;28;20039;-75
2022/03/14 01:44:52;;;;;;;13.73;10.52;;;;;;;;;;5102061;28;20067;-75
2022/03/14 01:47:18;;;;;;;19.23;12.13;;;;;;;;;;5105333;28;20414;-75
2022/03/14 01:49:45;;;;;;;13.45;10.30;;;;;;;;;;5112127;28;20024;-75
2022/03/14 01:52:13;;;;;;;16.85;11.05;;;;;;;;;;5107275;28;20043;-75
2022/03/14 01:54:39;;;;;;;15.75;10.63;;;;;;;;;;5093058;28;20059;-75
2022/03/14 01:57:05;;;;;;;16.08;9.98;;;;;;;;;;5105706;28;20058;-75
2022/03/14 01:59:32;;;;;;;13.73;10.65;;;;;;;;;;5111392;28;20053;-75
2022/03/14 02:01:58;;;;;;;13.27;10.48;;;;;;;;;;5111751;27;20019;-76
2022/03/14 02:04:24;;;;;;;13.30;9.70;;;;;;;;;;5118398;27;20066;-76
2022/03/14 02:06:54;;;;;;;12.90;8.98;;;;;;;;;;5100555;28;20028;-76
2022/03/14 02:09:23;;;;;;;14.00;9.75;;;;;;;;;;5112367;28;20031;-76
2022/03/14 02:11:52;;;;;;;14.77;8.80;;;;;;;;;;5107374;28;20487;-76
2022/03/14 02:14:18;;;;;;;11.77;9.52;;;;;;;;;;5111516;28;20391;-75
2022/03/14 02:16:44;;;;;;;12.02;8.90;;;;;;;;;;5100807;28;20677;-75
2022/03/14 02:19:10;;;;;;;13.52;9.93;;;;;;;;;;5104648;28;20515;-75
2022/03/14 02:21:38;;;;;;;12.57;9.32;;;;;;;;;;5093618;28;20480;-75
2022/03/14 02:24:04;;;;;;;11.52;9.18;;;;;;;;;;5099885;28;20028;-75
2022/03/14 02:26:30;;;;;;;9.82;7.68;;;;;;;;;;5097562;28;20527;-75
2022/03/14 02:28:56;;;;;;;10.48;8.02;;;;;;;;;;5091575;28;20430;-75
2022/03/14 02:31:24;;;;;;;10.52;7.72;;;;;;;;;;5095891;28;20025;-75
2022/03/14 02:33:50;;;;;;;9.82;7.22;;;;;;;;;;5112607;28;20062;-75
2022/03/14 02:36:16;;;;;;;8.52;5.65;;;;;;;;;;5106618;28;20099;-75
2022/03/14 02:38:43;;;;;;;9.90;6.43;;;;;;;;;;5101675;28;20033;-75
2022/03/14 02:41:10;;;;;;;7.82;6.38;;;;;;;;;;5097224;28;20853;-75
2022/03/14 02:43:36;;;;;;;8.40;6.60;;;;;;;;;;5112225;28;20383;-74
2022/03/14 02:46:03;;;;;;;7.85;6.18;;;;;;;;;;5104076;28;20147;-75
2022/03/14 02:48:30;;;;;;;7.93;7.13;;;;;;;;;;5110935;28;20028;-74
2022/03/14 02:50:56;;;;;;;9.18;6.90;;;;;;;;;;5104867;28;20476;-75
2022/03/14 02:53:22;;;;;;;9.60;6.72;;;;;;;;;;5109773;28;20589;-75
2022/03/14 02:55:49;;;;;;;7.82;6.03;;;;;;;;;;5111639;28;20035;-75
2022/03/14 02:58:15;;;;;;;8.00;6.22;;;;;;;;;;5110759;28;20035;-75
2022/03/14 03:00:42;;;;;;;9.68;6.57;;;;;;;;;;5103350;28;20042;-75
2022/03/14 03:03:11;;;;;;;7.78;6.40;;;;;;;;;;5109282;28;20028;-76
2022/03/14 03:05:37;;;;;;;9.52;6.55;;;;;;;;;;5110235;28;20042;-75
2022/03/14 03:08:04;;;;;;;6.68;5.63;;;;;;;;;;5098170;28;20534;-75
2022/03/14 03:10:31;;;;;;;7.85;6.28;;;;;;;;;;5112019;28;20536;-75
2022/03/14 03:12:57;;;;;;;7.22;6.00;;;;;;;;;;5105186;28;20032;-76
2022/03/14 03:15:24;;;;;;;9.68;5.47;;;;;;;;;;5102067;28;20379;-76
2022/03/14 03:17:51;;;;;;;7.47;5.28;;;;;;;;;;5097518;28;20058;-76
2022/03/14 03:20:17;;;;;;;6.78;5.65;;;;;;;;;;5108839;28;20100;-76
2022/03/14 03:22:43;;;;;;;8.10;5.93;;;;;;;;;;5100349;28;20464;-75
2022/03/14 03:25:09;;;;;;;7.25;5.25;;;;;;;;;;5112248;28;20032;-75
2022/03/14 03:27:36;;;;;;;11.30;5.70;;;;;;;;;;5094037;28;20077;-75
2022/03/14 03:30:03;;;;;;;6.78;4.97;;;;;;;;;;5106220;28;20105;-75
2022/03/14 03:32:29;;;;;;;6.00;5.13;;;;;;;;;;5097664;28;20031;-75
2022/03/14 03:34:55;;;;;;;5.05;4.00;;;;;;;;;;5091141;28;20570;-75
2022/03/14 03:37:21;;;;;;;7.43;4.75;;;;;;;;;;5091815;28;20123;-75
2022/03/14 03:39:47;;;;;;;5.05;4.53;;;;;;;;;;5091858;28;20035;-75
2022/03/14 03:42:13;;;;;;;5.22;3.90;;;;;;;;;;5094452;28;20050;-74
2022/03/14 03:44:39;;;;;;;6.13;3.78;;;;;;;;;;5108718;28;20035;-75
2022/03/14 03:47:06;;;;;;;10.00;4.00;;;;;;;;;;5105347;28;20514;-75
2022/03/14 03:49:32;;;;;;;5.28;3.97;;;;;;;;;;5101652;28;20016;-75
2022/03/14 03:51:58;;;;;;;5.18;3.95;;;;;;;;;;5107877;28;20024;-76
2022/03/14 03:54:25;;;;;;;6.45;3.85;;;;;;;;;;5107680;28;20348;-75
2022/03/14 03:56:51;;;;;;;5.85;3.92;;;;;;;;;;5106657;28;20031;-75
2022/03/14 03:59:17;;;;;;;4.22;3.75;;;;;;;;;;5107675;28;20065;-75
2022/03/14 04:01:43;;;;;;;5.05;4.00;;;;;;;;;;5098396;28;20379;-75
2022/03/14 04:04:11;;;;;;;4.95;3.75;;;;;;;;;;5097679;28;20047;-75
2022/03/14 04:06:38;;;;;;;5.85;3.85;;;;;;;;;;5094356;28;20055;-76
2022/03/14 04:09:06;;;;;;;5.63;4.22;;;;;;;;;;5090782;28;20057;-75
2022/03/14 04:11:32;;;;;;;5.20;4.20;;;;;;;;;;5104643;28;20044;-75
2022/03/14 04:13:59;;;;;;;5.03;3.75;;;;;;;;;;5092900;28;20545;-75
2022/03/14 04:16:29;;;;;;;4.60;3.80;;;;;;;;;;5097155;28;20020;-75
2022/03/14 04:18:55;;;;;;;6.13;4.30;;;;;;;;;;5097872;28;20040;-75
2022/03/14 04:21:21;;;;;;;4.75;3.85;;;;;;;;;;5106349;28;20028;-74
2022/03/14 04:23:48;;;;;;;5.85;4.03;;;;;;;;;;5103490;28;20034;-75
2022/03/14 04:26:14;;;;;;;7.57;4.15;;;;;;;;;;5101551;27;20036;-75
2022/03/14 04:28:41;;;;;;;5.47;4.15;;;;;;;;;;5094960;28;20098;-75
2022/03/14 04:31:08;;;;;;;5.32;3.85;;;;;;;;;;5096172;28;20025;-75
2022/03/14 04:33:34;;;;;;;4.53;3.50;;;;;;;;;;5112995;28;20479;-75
2022/03/14 04:36:00;;;;;;;6.95;4.28;;;;;;;;;;5093986;27;20668;-75
2022/03/14 04:38:27;;;;;;;5.13;3.83;;;;;;;;;;5095556;28;20028;-75
2022/03/14 04:40:54;;;;;;;5.43;3.95;;;;;;;;;;5097915;28;20068;-74
2022/03/14 04:43:21;;;;;;;4.22;3.78;;;;;;;;;;5113596;28;20494;-74
2022/03/14 04:45:47;;;;;;;3.35;2.70;;;;;;;;;;5106931;28;20028;-75
2022/03/14 04:48:13;;;;;;;4.30;3.30;;;;;;;;;;5110173;28;20061;-75
2022/03/14 04:50:41;;;;;;;5.47;3.88;;;;;;;;;;5105184;28;20036;-75
2022/03/14 04:53:08;;;;;;;3.53;3.20;;;;;;;;;;5098362;28;20028;-75
2022/03/14 04:55:37;;;;;;;3.15;2.67;;;;;;;;;;5111254;28;20167;-75
2022/03/14 04:58:04;;;;;;;2.85;2.53;;;;;;;;;;5103371;28;20028;-75
2022/03/14 05:00:30;;;;;;;6.50;3.25;;;;;;;;;;5107708;28;20028;-75
2022/03/14 05:03:01;;;;;;;7.00;2.95;;;;;;;;;;5105433;28;20478;-75
2022/03/14 05:05:27;;;;;;;3.25;2.58;;;;;;;;;;5093544;28;20039;-75
2022/03/14 05:07:53;;;;;;;2.50;2.30;;;;;;;;;;5099022;28;20090;-75
2022/03/14 05:10:19;;;;;;;2.70;2.10;;;;;;;;;;5109598;28;20204;-75
2022/03/14 05:12:45;;;;;;;2.53;2.10;;;;;;;;;;5104729;28;20065;-75
2022/03/14 05:15:11;;;;;;;3.65;2.38;;;;;;;;;;5111165;28;20043;-75
2022/03/14 05:17:37;;;;;;;2.47;1.95;;;;;;;;;;5106436;28;20028;-76
2022/03/14 05:20:04;;;;;;;2.30;2.03;;;;;;;;;;5117902;27;20039;-74
2022/03/14 05:22:30;;;;;;;3.00;2.10;;;;;;;;;;5108142;27;20371;-75
2022/03/14 05:24:57;;;;;;;2.03;1.75;;;;;;;;;;5111973;28;20032;-75
2022/03/14 05:27:23;;;;;;;3.05;2.33;;;;;;;;;;5101976;28;20027;-76
2022/03/14 05:29:49;;;;;;;5.47;4.30;;;;;;;;;;5099648;28;20036;-73
2022/03/14 05:32:15;;;;;;;11.43;6.03;;;;;;;;;;5104336;28;20031;-73
2022/03/14 05:34:41;;;;;;;3.45;2.88;;;;;;;;;;5107660;28;20067;-73
2022/03/14 05:37:08;;;;;;;2.97;2.15;;;;;;;;;;5106193;28;20057;-75
2022/03/14 05:39:34;;;;;;;2.08;1.88;;;;;;;;;;5093636;28;20024;-76
2022/03/14 05:42:00;;;;;;;2.50;1.83;;;;;;;;;;5100040;28;20579;-75
2022/03/14 05:44:26;;;;;;;3.55;1.90;;;;;;;;;;5097959;28;20032;-75
2022/03/14 05:46:52;;;;;;;3.10;2.08;;;;;;;;;;5101273;28;20028;-75
2022/03/14 05:49:18;;;;;;;4.03;2.20;;;;;;;;;;5104069;28;20016;-75
2022/03/14 05:51:44;;;;;;;2.10;1.90;;;;;;;;;;5095264;28;20035;-76
2022/03/14 05:54:10;;;;;;;2.75;2.10;;;;;;;;;;5107504;28;20039;-75
2022/03/14 05:56:36;;;;;;;3.15;1.92;;;;;;;;;;5097049;28;20040;-75
2022/03/14 05:59:02;;;;;;;64.90;33.83;;;;;;;;;;5099255;28;20054;-72
2022/03/14 06:01:28;;;;;;;4.88;3.13;;;;;;;;;;5102249;28;20024;-75
2022/03/14 06:03:54;;;;;;;2.42;1.90;;;;;;;;;;5094042;28;20027;-75
2022/03/14 06:06:21;;;;;;;2.28;2.08;;;;;;;;;;5104030;28;20024;-75
2022/03/14 06:08:47;;;;;;;2.97;2.10;;;;;;;;;;5110954;28;20041;-75
2022/03/14 06:11:13;;;;;;;2.60;2.30;;;;;;;;;;5095327;28;20024;-74
2022/03/14 06:13:39;;;;;;;3.63;2.60;;;;;;;;;;5100399;28;20036;-74
2022/03/14 06:16:06;;;;;;;2.55;2.33;;;;;;;;;;5097569;28;20075;-75
2022/03/14 06:18:32;;;;;;;3.47;2.25;;;;;;;;;;5104233;28;20137;-74
2022/03/14 06:20:59;;;;;;;2.53;2.30;;;;;;;;;;5097605;28;20109;-74
2022/03/14 06:23:25;;;;;;;2.30;2.05;;;;;;;;;;5104684;28;20024;-74
2022/03/14 06:25:53;;;;;;;2.95;2.30;;;;;;;;;;5094177;28;20032;-74
2022/03/14 06:28:19;;;;;;;2.90;2.22;;;;;;;;;;5093918;28;20479;-74
2022/03/14 06:30:45;;;;;;;3.60;2.55;;;;;;;;;;5108109;28;20039;-74
2022/03/14 06:33:12;;;;;;;3.80;2.20;;;;;;;;;;5106163;28;20019;-74
2022/03/14 06:35:40;;;;;;;3.15;2.60;;;;;;;;;;5109183;28;20059;-73
2022/03/14 06:38:06;;;;;;;3.85;2.55;;;;;;;;;;5108188;28;20092;-75
2022/03/14 06:40:32;;;;;;;2.75;2.20;;;;;;;;;;5108184;28;20032;-74
2022/03/14 06:42:59;;;;;;;2.90;2.55;;;;;;;;;;5103339;28;20414;-74
2022/03/14 06:45:26;;;;;;;3.20;2.67;;;;;;;;;;5106898;28;20031;-74
2022/03/14 06:47:53;;;;;;;3.40;2.45;;;;;;;;;;5107890;28;20024;-74
2022/03/14 06:50:20;;;;;;;3.30;2.00;;;;;;;;;;5112213;27;20038;-74
2022/03/14 06:52:46;;;;;;;3.40;2.22;;;;;;;;;;5100538;28;20483;-74
2022/03/14 06:55:13;;;;;;;12.13;6.93;;;;;;;;;;5100106;28;20047;-75
2022/03/14 06:57:39;;;;;;;10.25;6.72;;;;;;;;;;5103942;28;20043;-72
2022/03/14 07:00:06;;;;;;;4.45;2.95;;;;;;;;;;5094694;27;20032;-73
2022/03/14 07:02:32;;;;;;;4.90;3.38;;;;;;;;;;5101092;28;20111;-73
2022/03/14 07:04:58;;;;;;;3.95;3.05;;;;;;;;;;5097563;28;20379;-74
2022/03/14 07:07:24;;;;;;;2.80;2.50;;;;;;;;;;5098981;28;20153;-72
2022/03/14 07:09:50;;;;;;;2.85;2.53;;;;;;;;;;5105453;28;20487;-72
2022/03/14 07:12:16;;;;;;;3.03;2.70;;;;;;;;;;5106571;28;20059;-72
2022/03/14 07:14:42;;;;;;;3.15;2.85;;;;;;;;;;5103620;28;20097;-73
2022/03/14 07:17:08;;;;;;;3.75;2.92;;;;;;;;;;5105739;28;20035;-73
2022/03/14 07:19:34;;;;;;;2.92;2.63;;;;;;;;;;5102205;28;20101;-74
2022/03/14 07:22:00;;;;;;;2.97;2.67;;;;;;;;;;5091474;28;20024;-73
2022/03/14 07:24:26;;;;;;;3.50;2.90;;;;;;;;;;5099565;28;20090;-72
2022/03/14 07:26:52;;;;;;;4.47;3.20;;;;;;;;;;5101017;28;20028;-71
2022/03/14 07:29:18;;;;;;;3.85;3.22;;;;;;;;;;5094182;28;20051;-73
2022/03/14 07:31:45;;;;;;;3.35;3.05;;;;;;;;;;5100023;28;20036;-73
2022/03/14 07:34:11;;;;;;;5.10;3.92;;;;;;;;;;5104048;28;20130;-72
2022/03/14 07:36:37;;;;;;;3.75;3.40;;;;;;;;;;5110481;28;20031;-73
2022/03/14 07:39:06;;;;;;;3.20;2.83;;;;;;;;;;5108608;28;20117;-73
2022/03/14 07:41:32;;;;;;;3.25;2.67;;;;;;;;;;5099684;28;20031;-73
2022/03/14 07:44:00;;;;;;;3.47;3.15;;;;;;;;;;5104533;28;20073;-74
2022/03/14 07:46:27;;;;;;;4.05;3.55;;;;;;;;;;5107371;28;20379;-73
2022/03/14 07:48:53;;;;;;;4.13;3.72;;;;;;;;;;5107216;28;20051;-73
2022/03/14 07:51:20;;;;;;;4.13;3.33;;;;;;;;;;5098479;28;20063;-73
2022/03/14 07:53:46;;;;;;;3.88;3.47;;;;;;;;;;5107100;28;20335;-72
2022/03/14 07:56:13;;;;;;;4.53;4.05;;;;;;;;;;5101427;28;20036;-73
2022/03/14 07:58:41;;;;;;;6.47;5.32;;;;;;;;;;5095013;28;20591;-73
2022/03/14 08:01:07;;;;;;;6.13;5.43;;;;;;;;;;5102751;28;20118;-73
2022/03/14 08:03:33;;;;;;;6.38;5.55;;;;;;;;;;5105313;28;20092;-73
2022/03/14 08:06:00;;;;;;;23.27;16.02;;;;;;;;;;5109489;28;20458;-73
2022/03/14 08:08:26;;;;;;;6.50;5.75;;;;;;;;;;5110577;28;20020;-73
2022/03/14 08:10:54;;;;;;;7.65;5.63;;;;;;;;;;5112824;28;20023;-72
2022/03/14 08:13:20;;;;;;;8.18;7.38;;;;;;;;;;5108156;28;20024;-72
2022/03/14 08:15:47;;;;;;;10.35;9.32;;;;;;;;;;5103824;28;20451;-74
2022/03/14 08:18:13;;;;;;;10.82;8.93;;;;;;;;;;5108085;28;20030;-73
2022/03/14 08:20:40;;;;;;;12.60;11.18;;;;;;;;;;5102492;27;20035;-73
2022/03/14 08:23:07;;;;;;;15.23;13.15;;;;;;;;;;5109561;28;20035;-72
2022/03/14 08:25:36;;;;;;;15.95;13.30;;;;;;;;;;5099726;28;20032;-72
2022/03/14 08:28:03;;;;;;;17.77;15.02;;;;;;;;;;5095183;28;20024;-73
2022/03/14 08:30:29;;;;;;;22.48;16.48;;;;;;;;;;5102360;28;20050;-74
2022/03/14 08:32:56;;;;;;;19.90;16.13;;;;;;;;;;5105389;28;20040;-74
2022/03/14 08:35:22;;;;;;;26.35;17.52;;;;;;;;;;5110507;27;20083;-74
2022/03/14 08:37:50;;;;;;;26.52;18.33;;;;;;;;;;5106299;28;20024;-74
2022/03/14 08:40:19;;;;;;;23.85;17.38;;;;;;;;;;5096050;28;20113;-73
2022/03/14 08:42:45;;;;;;;21.80;18.83;;;;;;;;;;5099075;28;20418;-75
2022/03/14 08:45:12;;;;;;;24.17;18.48;;;;;;;;;;5094023;28;20032;-74
2022/03/14 08:47:38;;;;;;;23.60;19.38;;;;;;;;;;5104557;28;20108;-74
2022/03/14 08:50:07;;;;;;;23.52;19.33;;;;;;;;;;5099896;28;20040;-73
2022/03/14 08:52:34;;;;;;;23.83;18.83;;;;;;;;;;5106528;28;20023;-73
2022/03/14 08:55:00;;;;;;;24.90;20.25;;;;;;;;;;5101352;28;20073;-73
2022/03/14 08:57:26;;;;;;;26.50;20.83;;;;;;;;;;5101469;28;20035;-73
2022/03/14 08:59:54;;;;;;;28.27;21.63;;;;;;;;;;5094255;28;20489;-73
2022/03/14 09:02:20;;;;;;;29.80;23.45;;;;;;;;;;5108022;28;20065;-73
2022/03/14 09:04:46;;;;;;;29.55;22.45;;;;;;;;;;5107412;28;20031;-73
2022/03/14 09:07:12;;;;;;;33.58;23.52;;;;;;;;;;5113227;28;20012;-73
2022/03/14 09:09:38;;;;;;;32.00;22.33;;;;;;;;;;5097708;28;20028;-73
2022/03/14 09:12:04;;;;;;;33.47;22.45;;;;;;;;;;5104736;28;20369;-73
2022/03/14 09:14:35;;;;;;;33.17;22.85;;;;;;;;;;5104711;28;20414;-73
2022/03/14 09:17:01;;;;;;;33.85;23.35;;;;;;;;;;5101921;28;20035;-73
2022/03/14 09:19:27;;;;;;;31.83;22.42;;;;;;;;;;5109975;28;20034;-72
2022/03/14 09:21:58;;;;;;;35.58;22.77;;;;;;;;;;5105416;28;20111;-74
2022/03/14 09:24:24;;;;;;;29.08;19.42;;;;;;;;;;5096994;28;20044;-73
2022/03/14 09:26:50;;;;;;;29.27;19.80;;;;;;;;;;5103793;28;20059;-74
2022/03/14 09:29:17;;;;;;;34.60;21.48;;;;;;;;;;5104901;27;20062;-74
2022/03/14 09:31:43;;;;;;;30.48;19.95;;;;;;;;;;5113085;28;20053;-73
2022/03/14 09:34:09;;;;;;;30.65;20.00;;;;;;;;;;5105741;27;20070;-74
2022/03/14 09:36:35;;;;;;;27.73;19.00;;;;;;;;;;5104948;28;20032;-73
2022/03/14 09:39:01;;;;;;;27.50;18.85;;;;;;;;;;5104437;27;20085;-74
2022/03/14 09:41:29;;;;;;;26.73;17.45;;;;;;;;;;5097850;28;20066;-74
2022/03/14 09:43:57;;;;;;;26.02;15.80;;;;;;;;;;5100195;28;20111;-74
2022/03/14 09:46:24;;;;;;;25.38;15.70;;;;;;;;;;5105362;28;20030;-73
2022/03/14 09:48:51;;;;;;;25.73;15.25;;;;;;;;;;5104187;28;20114;-72
2022/03/14 09:51:18;;;;;;;25.67;15.48;;;;;;;;;;5106389;28;20028;-73
2022/03/14 09:53:44;;;;;;;28.83;16.17;;;;;;;;;;5104428;28;20380;-73
2022/03/14 09:56:10;;;;;;;27.27;13.77;;;;;;;;;;5108911;28;20054;-72
2022/03/14 09:58:38;;;;;;;24.58;13.90;;;;;;;;;;5096907;28;20028;-72
2022/03/14 10:01:05;;;;;;;22.98;12.70;;;;;;;;;;5112875;28;20471;-73
2022/03/14 10:03:31;;;;;;;27.17;14.07;;;;;;;;;;5112419;28;20032;-73
2022/03/14 10:05:57;;;;;;;25.38;13.48;;;;;;;;;;5113313;28;20047;-73
2022/03/14 10:08:24;;;;;;;21.35;12.05;;;;;;;;;;5104827;28;20075;-73
2022/03/14 10:10:50;;;;;;;21.60;10.90;;;;;;;;;;5113092;27;20031;-73
2022/03/14 10:13:16;;;;;;;25.67;13.02;;;;;;;;;;5107876;28;20104;-73
2022/03/14 10:15:43;;;;;;;27.40;13.52;;;;;;;;;;5097671;28;20107;-73
2022/03/14 10:18:13;;;;;;;22.58;12.00;;;;;;;;;;5104929;28;20027;-72
2022/03/14 10:20:55;;;;;;;22.45;10.18;;;;;;;;;;5107826;28;20031;-71
2022/03/14 10:23:50;;;;;;;21.77;9.02;;;;;;;;;;5103677;28;20024;-73
2022/03/14 10:26:17;;;;;;;17.50;8.65;;;;;;;;;;5091605;28;20040;-73
2022/03/14 10:28:49;;;;;;;18.83;7.45;;;;;;;;;;5103493;28;20480;-74
2022/03/14 10:31:15;;;;;;;17.38;7.00;;;;;;;;;;5104225;28;20023;-74
2022/03/14 10:33:41;;;;;;;14.35;6.72;;;;;;;;;;5102065;28;20031;-74
2022/03/14 10:36:09;;;;;;;13.93;5.10;;;;;;;;;;5104265;28;20048;-74
2022/03/14 10:38:44;;;;;;;14.82;7.50;;;;;;;;;;5105074;28;20036;-74
2022/03/14 10:41:15;;;;;;;15.50;6.38;;;;;;;;;;5103246;28;20032;-74
2022/03/14 10:43:42;;;;;;;15.00;8.13;;;;;;;;;;5103584;28;20028;-74
2022/03/14 10:46:08;;;;;;;25.00;7.75;;;;;;;;;;5105320;28;20089;-74
2022/03/14 10:48:43;;;;;;;17.60;8.43;;;;;;;;;;5102840;28;20039;-72
2022/03/14 10:51:10;;;;;;;22.13;9.05;;;;;;;;;;5102255;28;20030;-71
2022/03/14 10:53:40;;;;;;;25.20;9.95;;;;;;;;;;5104287;28;20032;-75
2022/03/14 10:56:06;;;;;;;18.38;7.43;;;;;;;;;;5109223;28;20016;-75
2022/03/14 10:58:35;;;;;;;17.52;6.82;;;;;;;;;;5091511;28;20028;-73
2022/03/14 11:01:02;;;;;;;17.63;6.78;;;;;;;;;;5097230;28;20028;-73
2022/03/14 11:03:29;;;;;;;14.13;5.97;;;;;;;;;;5107507;28;20046;-74
2022/03/14 11:05:58;;;;;;;17.77;6.65;;;;;;;;;;5102658;28;20034;-74
2022/03/14 11:08:25;;;;;;;17.60;7.30;;;;;;;;;;5103278;28;20028;-74
2022/03/14 11:10:51;;;;;;;21.17;7.50;;;;;;;;;;5094032;28;20032;-74
2022/03/14 11:13:18;;;;;;;15.77;6.82;;;;;;;;;;5107109;28;20027;-73
2022/03/14 11:15:44;;;;;;;20.92;9.55;;;;;;;;;;5097535;28;20054;-73
2022/03/14 11:18:10;;;;;;;21.70;8.35;;;;;;;;;;5110024;28;20080;-73
2022/03/14 11:20:36;;;;;;;20.25;7.78;;;;;;;;;;5101528;28;20027;-76
2022/03/14 11:23:03;;;;;;;24.67;10.05;;;;;;;;;;5096031;28;20051;-76
2022/03/14 11:25:29;;;;;;;23.02;10.45;;;;;;;;;;5107455;28;20104;-76
2022/03/14 11:27:56;;;;;;;27.20;10.85;;;;;;;;;;5105794;28;20081;-76
2022/03/14 11:30:23;;;;;;;21.88;9.70;;;;;;;;;;5095671;28;20040;-73
2022/03/14 11:32:49;;;;;;;21.85;10.80;;;;;;;;;;5092937;28;20041;-73
2022/03/14 11:35:16;;;;;;;20.08;10.40;;;;;;;;;;5106318;28;20056;-73
2022/03/14 11:37:45;;;;;;;26.38;12.20;;;;;;;;;;5096236;28;20024;-73
2022/03/14 11:40:11;;;;;;;21.45;10.27;;;;;;;;;;5111505;28;20039;-74
2022/03/14 11:42:37;;;;;;;25.48;11.27;;;;;;;;;;5105884;28;20031;-73
2022/03/14 11:45:05;;;;;;;24.30;10.50;;;;;;;;;;5102359;28;20039;-73
2022/03/14 11:47:31;;;;;;;25.05;10.50;;;;;;;;;;5093664;28;20024;-72
2022/03/14 11:49:58;;;;;;;24.08;10.18;;;;;;;;;;5102350;28;20070;-73
2022/03/14 11:52:34;;;;;;;23.08;10.85;;;;;;;;;;5101974;28;20427;-73
2022/03/14 11:55:02;;;;;;;24.63;11.15;;;;;;;;;;5093721;28;20040;-73
2022/03/14 11:57:41;;;;;;;24.50;11.55;;;;;;;;;;5096768;28;20055;-72
2022/03/14 12:00:24;;;;;;;26.85;10.57;;;;;;;;;;5098022;28;20068;-73
2022/03/14 12:02:53;;;;;;;20.73;9.95;;;;;;;;;;5097756;28;20379;-73
2022/03/14 12:05:23;;;;;;;25.30;11.45;;;;;;;;;;5096296;28;20466;-73
2022/03/14 12:07:51;;;;;;;22.92;10.68;;;;;;;;;;5106673;28;20024;-72
2022/03/14 12:10:30;;;;;;;19.15;9.93;;;;;;;;;;5098162;28;20028;-74
2022/03/14 12:12:59;;;;;;;26.02;11.10;;;;;;;;;;5092943;28;20484;-73
2022/03/14 12:15:42;;;;;;;21.58;10.63;;;;;;;;;;5111237;28;20383;-74
2022/03/14 12:18:24;;;;;;;21.70;11.15;;;;;;;;;;5090992;28;20074;-74
2022/03/14 12:20:50;;;;;;;25.98;11.82;;;;;;;;;;5099937;28;20040;-74
2022/03/14 12:23:23;;;;;;;18.30;9.60;;;;;;;;;;5106686;28;20028;-74
2022/03/14 12:25:49;;;;;;;23.27;10.05;;;;;;;;;;5097947;28;20047;-73
2022/03/14 12:28:27;;;;;;;20.00;9.20;;;;;;;;;;5108911;28;20026;-73
2022/03/14 12:30:57;;;;;;;20.70;9.57;;;;;;;;;;5100114;28;20036;-73
2022/03/14 12:33:31;;;;;;;20.58;10.15;;;;;;;;;;5103954;28;20442;-73
2022/03/14 12:35:57;;;;;;;21.67;9.23;;;;;;;;;;5105425;28;20056;-74
2022/03/14 12:38:23;;;;;;;21.50;9.68;;;;;;;;;;5113018;28;20076;-73
2022/03/14 12:40:56;;;;;;;18.45;9.25;;;;;;;;;;5114085;27;20070;-74
2022/03/14 12:43:25;;;;;;;24.75;8.75;;;;;;;;;;5109875;28;20023;-74
2022/03/14 12:46:02;;;;;;;24.23;9.30;;;;;;;;;;5104085;28;20493;-74
2022/03/14 12:48:32;;;;;;;18.60;8.38;;;;;;;;;;5098151;28;20028;-74
2022/03/14 12:51:02;;;;;;;22.27;11.93;;;;;;;;;;5099763;28;20107;-74
2022/03/14 12:53:29;;;;;;;15.73;7.88;;;;;;;;;;5111026;28;20103;-72
2022/03/14 12:56:11;;;;;;;17.67;7.90;;;;;;;;;;5101178;28;20418;-72
2022/03/14 12:58:38;;;;;;;17.42;7.53;;;;;;;;;;5097009;28;20103;-75
2022/03/14 13:01:10;;;;;;;16.00;7.75;;;;;;;;;;5093469;28;20105;-76
2022/03/14 13:03:36;;;;;;;15.05;8.02;;;;;;;;;;5105729;28;20024;-76
2022/03/14 13:06:03;;;;;;;20.83;7.85;;;;;;;;;;5109452;28;20164;-76
2022/03/14 13:08:29;;;;;;;18.75;8.48;;;;;;;;;;5098374;28;20060;-76
2022/03/14 13:10:56;;;;;;;19.65;7.63;;;;;;;;;;5102637;28;20465;-76
2022/03/14 13:13:30;;;;;;;14.05;6.90;;;;;;;;;;5098222;28;20043;-76
2022/03/14 13:16:06;;;;;;;16.33;7.15;;;;;;;;;;5107986;28;20049;-76
2022/03/14 13:18:33;;;;;;;16.58;8.15;;;;;;;;;;5101604;28;20024;-77
2022/03/14 13:21:00;;;;;;;18.98;8.80;;;;;;;;;;5096696;28;20132;-76
2022/03/14 13:23:27;;;;;;;16.58;6.35;;;;;;;;;;5114264;28;20047;-76
2022/03/14 13:25:53;;;;;;;17.92;7.07;;;;;;;;;;5106840;28;20467;-76
2022/03/14 13:28:26;;;;;;;17.23;8.63;;;;;;;;;;5106127;28;20031;-76
2022/03/14 13:30:53;;;;;;;15.45;7.53;;;;;;;;;;5105112;28;20066;-75
2022/03/14 13:33:26;;;;;;;16.77;6.53;;;;;;;;;;5111850;28;20102;-75
2022/03/14 13:35:53;;;;;;;11.13;6.15;;;;;;;;;;5106090;28;20138;-75
2022/03/14 13:38:29;;;;;;;19.95;5.90;;;;;;;;;;5112930;28;20032;-75
2022/03/14 13:40:56;;;;;;;13.70;5.80;;;;;;;;;;5108256;28;20032;-75
2022/03/14 13:43:22;;;;;;;16.48;6.38;;;;;;;;;;5093156;28;20471;-76
2022/03/14 13:45:48;;;;;;;17.20;4.93;;;;;;;;;;5106801;28;20505;-76
2022/03/14 13:48:23;;;;;;;20.20;5.03;;;;;;;;;;5112604;28;20023;-76
2022/03/14 13:50:50;;;;;;;12.43;4.65;;;;;;;;;;5105901;28;20047;-76
2022/03/14 13:53:20;;;;;;;11.45;4.75;;;;;;;;;;5102409;28;20071;-75
2022/03/14 13:55:53;;;;;;;16.83;4.50;;;;;;;;;;5099264;28;20035;-75
2022/03/14 13:58:23;;;;;;;16.25;4.70;;;;;;;;;;5107044;28;20039;-75
2022/03/14 14:00:53;;;;;;;19.02;5.03;;;;;;;;;;5109875;28;20389;-75
2022/03/14 14:03:26;;;;;;;16.48;5.25;;;;;;;;;;5102312;28;20674;-74
2022/03/14 14:05:52;;;;;;;16.15;4.47;;;;;;;;;;5102207;28;20039;-75
2022/03/14 14:08:36;;;;;;;16.20;4.18;;;;;;;;;;5109926;28;20032;-75
2022/03/14 14:11:03;;;;;;;17.15;4.57;;;;;;;;;;5102457;28;20039;-75
2022/03/14 14:13:47;;;;;;;17.92;4.38;;;;;;;;;;5113428;28;20111;-75
2022/03/14 14:16:17;;;;;;;12.20;4.25;;;;;;;;;;5102784;28;20110;-75
2022/03/14 14:18:44;;;;;;;15.88;4.03;;;;;;;;;;5109345;28;20028;-75
2022/03/14 14:21:18;;;;;;;23.05;5.30;;;;;;;;;;5108609;28;20059;-75
2022/03/14 14:23:44;;;;;;;15.55;3.95;;;;;;;;;;5110253;28;20035;-75
2022/03/14 14:26:10;;;;;;;16.85;3.97;;;;;;;;;;5112461;28;20024;-75
2022/03/14 14:28:38;;;;;;;11.07;3.70;;;;;;;;;;5102203;28;20084;-72
2022/03/14 14:31:04;;;;;;;19.67;4.18;;;;;;;;;;5097829;28;20073;-75
2022/03/14 14:33:32;;;;;;;13.90;3.70;;;;;;;;;;5099756;28;20032;-73